sensor_id;sensor_type;location;lat;lon;timestamp;pressure;altitude;pressure_sealevel;temperature;humidity
8320;BME280;4197;42.130;24.746;2023-01-28T00:02:07;98757.38;;;3.71;100.00
8320;BME280;4197;42.130;24.746;2023-01-28T00:04:36;98757.38;;;3.71;100.00
8320;BME280;4197;42.130;24.746;2023-01-28T00:07:04;98753.91;;;3.71;100.00
8320;BME280;4197;42.130;24.746;2023-01-28T00:09:32;98765.47;;;3.63;100.00
8320;BME280;4197;42.130;24.746;2023-01-28T00:12:00;98765.34;;;3.59;100.00
8320;BME280;4197;42.130;24.746;2023-01-28T00:14:28;98769.25;;;3.62;100.00
8320;BME280;4197;42.130;24.746;2023-01-28T00:16:58;98770.81;;;3.63;100.00
8320;BME280;4197;42.130;24.746;2023-01-28T00:19:26;98763.44;;;3.60;100.00
8320;BME280;4197;42.130;24.746;2023-01-28T00:21:54;98773.56;;;3.54;100.00
8320;BME280;4197;42.130;24.746;2023-01-28T00:24:22;98770.88;;;3.54;100.00
8320;BME280;4197;42.130;24.746;2023-01-28T00:26:50;98773.72;;;3.57;100.00
8320;BME280;4197;42.130;24.746;2023-01-28T00:29:18;98775.94;;;3.55;100.00
8320;BME280;4197;42.130;24.746;2023-01-28T00:31:46;98771.66;;;3.54;100.00
8320;BME280;4197;42.130;24.746;2023-01-28T00:34:16;98787.28;;;3.52;100.00
8320;BME280;4197;42.130;24.746;2023-01-28T00:36:44;98781.59;;;3.54;100.00
8320;BME280;4197;42.130;24.746;2023-01-28T00:39:23;98790.75;;;3.53;100.00
8320;BME280;4197;42.130;24.746;2023-01-28T00:41:52;98801.47;;;3.53;100.00
8320;BME280;4197;42.130;24.746;2023-01-28T00:44:20;98802.25;;;3.53;100.00
8320;BME280;4197;42.130;24.746;2023-01-28T00:46:49;98805.72;;;3.54;100.00
8320;BME280;4197;42.130;24.746;2023-01-28T00:49:19;98815.66;;;3.53;100.00
8320;BME280;4197;42.130;24.746;2023-01-28T00:51:47;98817.44;;;3.49;100.00
8320;BME280;4197;42.130;24.746;2023-01-28T00:54:15;98818.34;;;3.53;100.00
8320;BME280;4197;42.130;24.746;2023-01-28T00:56:44;98810.63;;;3.52;100.00
8320;BME280;4197;42.130;24.746;2023-01-28T00:59:12;98810.63;;;3.52;100.00
8320;BME280;4197;42.130;24.746;2023-01-28T01:01:40;98807.81;;;3.48;100.00
8320;BME280;4197;42.130;24.746;2023-01-28T01:04:08;98823.09;;;3.48;100.00
8320;BME280;4197;42.130;24.746;2023-01-28T01:06:39;98825.78;;;3.48;100.00
8320;BME280;4197;42.130;24.746;2023-01-28T01:09:10;98821.84;;;3.45;100.00
8320;BME280;4197;42.130;24.746;2023-01-28T01:11:38;98824.66;;;3.49;100.00
8320;BME280;4197;42.130;24.746;2023-01-28T01:14:09;98813.63;;;3.50;100.00
8320;BME280;4197;42.130;24.746;2023-01-28T01:16:37;98814.28;;;3.47;100.00
8320;BME280;4197;42.130;24.746;2023-01-28T01:19:06;98814.09;;;3.52;100.00
8320;BME280;4197;42.130;24.746;2023-01-28T01:21:35;98817.56;;;3.53;100.00
8320;BME280;4197;42.130;24.746;2023-01-28T01:24:05;98812.50;;;3.51;100.00
8320;BME280;4197;42.130;24.746;2023-01-28T01:26:33;98822.75;;;3.58;100.00
8320;BME280;4197;42.130;24.746;2023-01-28T01:29:01;98819.91;;;3.54;100.00
8320;BME280;4197;42.130;24.746;2023-01-28T01:31:29;98827.47;;;3.61;100.00
8320;BME280;4197;42.130;24.746;2023-01-28T01:33:57;98819.13;;;3.54;100.00
8320;BME280;4197;42.130;24.746;2023-01-28T01:36:26;98827.47;;;3.61;100.00
8320;BME280;4197;42.130;24.746;2023-01-28T01:38:54;98835.53;;;3.52;100.00
8320;BME280;4197;42.130;24.746;2023-01-28T01:41:27;98827.69;;;3.47;100.00
8320;BME280;4197;42.130;24.746;2023-01-28T01:43:57;98830.19;;;3.52;100.00
8320;BME280;4197;42.130;24.746;2023-01-28T01:46:35;98831.75;;;3.53;100.00
8320;BME280;4197;42.130;24.746;2023-01-28T01:49:11;98835.84;;;3.51;100.00
8320;BME280;4197;42.130;24.746;2023-01-28T01:51:43;98840.31;;;3.47;100.00
8320;BME280;4197;42.130;24.746;2023-01-28T01:54:15;98836.19;;;3.49;100.00
8320;BME280;4197;42.130;24.746;2023-01-28T01:56:47;98854.00;;;3.45;100.00
8320;BME280;4197;42.130;24.746;2023-01-28T01:59:21;98858.25;;;3.46;100.00
8320;BME280;4197;42.130;24.746;2023-01-28T02:01:53;98850.50;;;3.53;100.00
8320;BME280;4197;42.130;24.746;2023-01-28T02:04:25;98854.44;;;3.56;100.00
8320;BME280;4197;42.130;24.746;2023-01-28T02:06:58;98856.00;;;3.57;100.00
8320;BME280;4197;42.130;24.746;2023-01-28T02:09:30;98857.25;;;3.60;100.00
8320;BME280;4197;42.130;24.746;2023-01-28T02:12:02;98857.25;;;3.60;100.00
8320;BME280;4197;42.130;24.746;2023-01-28T02:14:34;98859.63;;;3.61;100.00
8320;BME280;4197;42.130;24.746;2023-01-28T02:17:04;98862.31;;;3.61;100.00
8320;BME280;4197;42.130;24.746;2023-01-28T02:19:36;98868.00;;;3.60;100.00
8320;BME280;4197;42.130;24.746;2023-01-28T02:25:33;98876.69;;;3.56;100.00
8320;BME280;4197;42.130;24.746;2023-01-28T02:28:22;98884.25;;;3.63;100.00
8320;BME280;4197;42.130;24.746;2023-01-28T02:31:01;98884.53;;;3.62;100.00
8320;BME280;4197;42.130;24.746;2023-01-28T02:33:34;98882.66;;;3.62;100.00
8320;BME280;4197;42.130;24.746;2023-01-28T02:36:14;98879.34;;;3.56;100.00
8320;BME280;4197;42.130;24.746;2023-01-28T02:38:47;98879.50;;;3.60;100.00
8320;BME280;4197;42.130;24.746;2023-01-28T02:41:21;98882.66;;;3.62;100.00
8320;BME280;4197;42.130;24.746;2023-01-28T02:43:52;98878.72;;;3.60;100.00
8320;BME280;4197;42.130;24.746;2023-01-28T02:46:21;98892.44;;;3.58;100.00
8320;BME280;4197;42.130;24.746;2023-01-28T02:49:23;98893.09;;;3.55;100.00
8320;BME280;4197;42.130;24.746;2023-01-28T02:52:17;98889.00;;;3.57;100.00
8320;BME280;4197;42.130;24.746;2023-01-28T02:54:54;98896.88;;;3.54;100.00
8320;BME280;4197;42.130;24.746;2023-01-28T02:57:31;98887.75;;;3.55;100.00
8320;BME280;4197;42.130;24.746;2023-01-28T03:00:10;98890.06;;;3.56;100.00
8320;BME280;4197;42.130;24.746;2023-01-28T03:02:48;98891.66;;;3.57;100.00
8320;BME280;4197;42.130;24.746;2023-01-28T03:05:22;98898.78;;;3.53;100.00
8320;BME280;4197;42.130;24.746;2023-01-28T03:07:52;98901.44;;;3.53;99.68
8320;BME280;4197;42.130;24.746;2023-01-28T03:10:24;98902.56;;;3.52;99.66
8320;BME280;4197;42.130;24.746;2023-01-28T03:12:53;98901.44;;;3.53;100.00
8320;BME280;4197;42.130;24.746;2023-01-28T03:15:45;98906.16;;;3.56;98.95
8320;BME280;4197;42.130;24.746;2023-01-28T03:18:36;98897.66;;;3.54;98.66
8320;BME280;4197;42.130;24.746;2023-01-28T03:21:27;98899.88;;;3.52;98.54
8320;BME280;4197;42.130;24.746;2023-01-28T03:24:18;98906.66;;;3.50;97.97
8320;BME280;4197;42.130;24.746;2023-01-28T03:27:11;98898.78;;;3.53;98.13
8320;BME280;4197;42.130;24.746;2023-01-28T03:30:01;98896.88;;;3.54;98.00
8320;BME280;4197;42.130;24.746;2023-01-28T03:32:50;98899.88;;;3.52;97.88
8320;BME280;4197;42.130;24.746;2023-01-28T03:35:37;98900.66;;;3.53;98.18
8320;BME280;4197;42.130;24.746;2023-01-28T03:38:24;98910.59;;;3.52;97.14
8320;BME280;4197;42.130;24.746;2023-01-28T03:41:02;98906.34;;;3.51;97.45
8320;BME280;4197;42.130;24.746;2023-01-28T03:43:30;98922.25;;;3.56;98.11
8320;BME280;4197;42.130;24.746;2023-01-28T03:45:59;98911.88;;;3.55;97.84
8320;BME280;4197;42.130;24.746;2023-01-28T03:48:29;98915.97;;;3.52;97.81
8320;BME280;4197;42.130;24.746;2023-01-28T03:50:57;98915.81;;;3.49;98.00
8320;BME280;4197;42.130;24.746;2023-01-28T03:53:26;98917.88;;;3.43;98.11
8320;BME280;4197;42.130;24.746;2023-01-28T03:55:55;98918.19;;;3.42;98.47
8320;BME280;4197;42.130;24.746;2023-01-28T03:58:24;98932.06;;;3.44;98.10
8320;BME280;4197;42.130;24.746;2023-01-28T04:01:12;98927.03;;;3.42;98.45
8320;BME280;4197;42.130;24.746;2023-01-28T04:03:42;98927.31;;;3.41;97.79
8320;BME280;4197;42.130;24.746;2023-01-28T04:06:10;98919.63;;;3.39;98.38
8320;BME280;4197;42.130;24.746;2023-01-28T04:08:38;98928.31;;;3.36;98.57
8320;BME280;4197;42.130;24.746;2023-01-28T04:11:11;98925.94;;;3.34;98.75
8320;BME280;4197;42.130;24.746;2023-01-28T04:13:42;98927.19;;;3.37;98.90
8320;BME280;4197;42.130;24.746;2023-01-28T04:16:12;98929.09;;;3.37;98.86
8320;BME280;4197;42.130;24.746;2023-01-28T04:18:42;98917.75;;;3.31;99.26
8320;BME280;4197;42.130;24.746;2023-01-28T04:21:11;98918.84;;;3.21;100.00
8320;BME280;4197;42.130;24.746;2023-01-28T04:23:39;98928.31;;;3.27;99.97
8320;BME280;4197;42.130;24.746;2023-01-28T04:26:08;98932.88;;;3.27;99.09
8320;BME280;4197;42.130;24.746;2023-01-28T04:28:36;98936.19;;;3.24;99.03
8320;BME280;4197;42.130;24.746;2023-01-28T04:31:04;98929.25;;;3.23;99.39
8320;BME280;4197;42.130;24.746;2023-01-28T04:33:32;98939.97;;;3.23;99.18
8320;BME280;4197;42.130;24.746;2023-01-28T04:36:02;98933.06;;;3.22;99.08
8320;BME280;4197;42.130;24.746;2023-01-28T04:38:30;98932.75;;;3.15;99.68
8320;BME280;4197;42.130;24.746;2023-01-28T04:40:58;98936.97;;;3.16;99.83
8320;BME280;4197;42.130;24.746;2023-01-28T04:43:26;98938.09;;;3.15;99.42
8320;BME280;4197;42.130;24.746;2023-01-28T04:45:54;98940.28;;;3.12;99.96
8320;BME280;4197;42.130;24.746;2023-01-28T04:48:22;98948.34;;;3.12;99.73
8320;BME280;4197;42.130;24.746;2023-01-28T04:50:50;98949.59;;;3.06;100.00
8320;BME280;4197;42.130;24.746;2023-01-28T04:53:20;98956.06;;;3.05;100.00
8320;BME280;4197;42.130;24.746;2023-01-28T04:55:48;98955.59;;;3.03;100.00
8320;BME280;4197;42.130;24.746;2023-01-28T04:58:16;98957.50;;;3.03;100.00
8320;BME280;4197;42.130;24.746;2023-01-28T05:00:44;98968.19;;;3.03;100.00
8320;BME280;4197;42.130;24.746;2023-01-28T05:03:12;98967.88;;;3.04;100.00
8320;BME280;4197;42.130;24.746;2023-01-28T05:05:40;98968.69;;;3.05;100.00
8320;BME280;4197;42.130;24.746;2023-01-28T05:08:08;98980.03;;;3.10;100.00
8320;BME280;4197;42.130;24.746;2023-01-28T05:10:38;98977.81;;;3.12;99.97
8320;BME280;4197;42.130;24.746;2023-01-28T05:13:06;98986.03;;;3.16;100.00
8320;BME280;4197;42.130;24.746;2023-01-28T05:15:35;98989.16;;;3.18;99.86
8320;BME280;4197;42.130;24.746;2023-01-28T05:18:03;98979.69;;;3.21;99.38
8320;BME280;4197;42.130;24.746;2023-01-28T05:20:31;98985.22;;;3.24;99.47
8320;BME280;4197;42.130;24.746;2023-01-28T05:22:59;98990.09;;;3.22;99.48
8320;BME280;4197;42.130;24.746;2023-01-28T05:25:27;98986.00;;;3.25;98.78
8320;BME280;4197;42.130;24.746;2023-01-28T05:27:57;98995.31;;;3.27;99.31
8320;BME280;4197;42.130;24.746;2023-01-28T05:30:25;98991.38;;;3.25;98.19
8320;BME280;4197;42.130;24.746;2023-01-28T05:32:56;98990.41;;;3.29;98.37
8320;BME280;4197;42.130;24.746;2023-01-28T05:35:24;98996.88;;;3.28;98.61
8320;BME280;4197;42.130;24.746;2023-01-28T05:37:52;99000.47;;;3.32;98.56
8320;BME280;4197;42.130;24.746;2023-01-28T05:40:21;99001.31;;;3.33;98.42
8320;BME280;4197;42.130;24.746;2023-01-28T05:42:49;99007.91;;;3.35;99.19
8320;BME280;4197;42.130;24.746;2023-01-28T05:45:18;99015.31;;;3.39;98.70
8320;BME280;4197;42.130;24.746;2023-01-28T05:47:47;99015.31;;;3.39;98.84
8320;BME280;4197;42.130;24.746;2023-01-28T05:50:15;99024.63;;;3.41;98.33
8320;BME280;4197;42.130;24.746;2023-01-28T05:52:44;99018.47;;;3.41;98.35
8320;BME280;4197;42.130;24.746;2023-01-28T05:55:12;99020.06;;;3.42;97.56
8320;BME280;4197;42.130;24.746;2023-01-28T05:57:40;99032.66;;;3.41;98.23
8320;BME280;4197;42.130;24.746;2023-01-28T06:00:11;99032.81;;;3.45;98.66
8320;BME280;4197;42.130;24.746;2023-01-28T06:02:42;99037.41;;;3.44;98.29
8320;BME280;4197;42.130;24.746;2023-01-28T06:05:11;99041.16;;;3.43;98.55
8320;BME280;4197;42.130;24.746;2023-01-28T06:07:39;99037.53;;;3.48;98.23
8320;BME280;4197;42.130;24.746;2023-01-28T06:10:11;99047.97;;;3.49;98.51
8320;BME280;4197;42.130;24.746;2023-01-28T06:12:39;99054.56;;;3.52;98.47
8320;BME280;4197;42.130;24.746;2023-01-28T06:15:09;99064.34;;;3.56;98.29
8320;BME280;4197;42.130;24.746;2023-01-28T06:17:38;99062.00;;;3.55;98.04
8320;BME280;4197;42.130;24.746;2023-01-28T06:20:11;99065.94;;;3.57;97.75
8320;BME280;4197;42.130;24.746;2023-01-28T06:22:43;99064.19;;;3.62;97.82
8320;BME280;4197;42.130;24.746;2023-01-28T06:25:13;99066.56;;;3.63;97.83
8320;BME280;4197;42.130;24.746;2023-01-28T06:27:41;99069.25;;;3.63;98.53
8320;BME280;4197;42.130;24.746;2023-01-28T06:30:10;99068.91;;;3.65;98.31
8320;BME280;4197;42.130;24.746;2023-01-28T06:32:39;99078.06;;;3.64;98.46
8320;BME280;4197;42.130;24.746;2023-01-28T06:35:08;99079.00;;;3.68;98.44
8320;BME280;4197;42.130;24.746;2023-01-28T06:37:39;99081.84;;;3.71;98.45
8320;BME280;4197;42.130;24.746;2023-01-28T06:40:11;99087.38;;;3.75;98.38
8320;BME280;4197;42.130;24.746;2023-01-28T06:42:40;99088.94;;;3.76;98.02
8320;BME280;4197;42.130;24.746;2023-01-28T06:45:09;99093.19;;;3.68;98.86
8320;BME280;4197;42.130;24.746;2023-01-28T06:47:37;99091.00;;;3.70;98.87
8320;BME280;4197;42.130;24.746;2023-01-28T06:50:06;99097.31;;;3.74;99.22
8320;BME280;4197;42.130;24.746;2023-01-28T06:52:35;99104.22;;;3.84;98.87
8320;BME280;4197;42.130;24.746;2023-01-28T06:55:05;99103.75;;;3.82;99.18
8320;BME280;4197;42.130;24.746;2023-01-28T06:57:36;99109.59;;;3.84;98.71
8320;BME280;4197;42.130;24.746;2023-01-28T07:00:09;99108.81;;;3.92;98.34
8320;BME280;4197;42.130;24.746;2023-01-28T07:02:39;99107.22;;;3.91;99.06
8320;BME280;4197;42.130;24.746;2023-01-28T07:05:08;99112.88;;;3.98;98.52
8320;BME280;4197;42.130;24.746;2023-01-28T07:07:36;99114.66;;;3.94;98.61
8320;BME280;4197;42.130;24.746;2023-01-28T07:10:10;99115.56;;;3.98;99.09
8320;BME280;4197;42.130;24.746;2023-01-28T07:12:38;99132.00;;;4.06;99.01
8320;BME280;4197;42.130;24.746;2023-01-28T07:15:08;99125.22;;;3.99;98.54
8320;BME280;4197;42.130;24.746;2023-01-28T07:17:38;99126.63;;;3.97;98.84
8320;BME280;4197;42.130;24.746;2023-01-28T07:20:09;99122.34;;;4.05;98.45
8320;BME280;4197;42.130;24.746;2023-01-28T07:22:39;99135.44;;;4.15;98.48
8320;BME280;4197;42.130;24.746;2023-01-28T07:25:11;99134.34;;;4.07;96.39
8320;BME280;4197;42.130;24.746;2023-01-28T07:27:45;99137.50;;;4.00;96.58
8320;BME280;4197;42.130;24.746;2023-01-28T07:30:14;99144.78;;;4.00;96.78
8320;BME280;4197;42.130;24.746;2023-01-28T07:32:43;99140.66;;;4.11;96.53
8320;BME280;4197;42.130;24.746;2023-01-28T07:35:12;99146.03;;;4.11;96.29
8320;BME280;4197;42.130;24.746;2023-01-28T07:37:41;99148.56;;;4.08;95.95
8320;BME280;4197;42.130;24.746;2023-01-28T07:40:12;99144.28;;;4.07;96.46
8320;BME280;4197;42.130;24.746;2023-01-28T07:42:41;99148.06;;;4.14;95.59
8320;BME280;4197;42.130;24.746;2023-01-28T07:45:10;99155.03;;;4.24;95.43
8320;BME280;4197;42.130;24.746;2023-01-28T07:47:38;99158.00;;;4.31;95.63
8320;BME280;4197;42.130;24.746;2023-01-28T07:50:09;99164.31;;;4.35;93.71
8320;BME280;4197;42.130;24.746;2023-01-28T07:52:38;99163.84;;;4.33;94.10
8320;BME280;4197;42.130;24.746;2023-01-28T07:55:12;99162.53;;;4.48;93.56
8320;BME280;4197;42.130;24.746;2023-01-28T07:57:48;99160.81;;;4.43;92.34
8320;BME280;4197;42.130;24.746;2023-01-28T08:00:17;99164.13;;;4.49;93.08
8320;BME280;4197;42.130;24.746;2023-01-28T08:02:48;99169.47;;;4.58;92.96
8320;BME280;4197;42.130;24.746;2023-01-28T08:05:18;99168.28;;;4.76;91.72
8320;BME280;4197;42.130;24.746;2023-01-28T08:07:48;99165.38;;;4.90;91.93
8320;BME280;4197;42.130;24.746;2023-01-28T08:10:18;99171.84;;;4.98;90.97
8320;BME280;4197;42.130;24.746;2023-01-28T08:12:51;99186.66;;;5.04;91.01
8320;BME280;4197;42.130;24.746;2023-01-28T08:15:19;99179.97;;;5.19;90.37
8320;BME280;4197;42.130;24.746;2023-01-28T08:17:48;99187.34;;;5.30;88.86
8320;BME280;4197;42.130;24.746;2023-01-28T08:20:17;99182.78;;;5.22;89.07
8320;BME280;4197;42.130;24.746;2023-01-28T08:23:06;99194.25;;;5.10;90.41
8320;BME280;4197;42.130;24.746;2023-01-28T08:25:36;99200.72;;;5.09;89.49
8320;BME280;4197;42.130;24.746;2023-01-28T08:28:05;99199.09;;;5.17;88.67
8320;BME280;4197;42.130;24.746;2023-01-28T08:30:35;99193.84;;;5.21;87.56
8320;BME280;4197;42.130;24.746;2023-01-28T08:33:06;99219.47;;;5.27;86.79
8320;BME280;4197;42.130;24.746;2023-01-28T08:35:35;99211.00;;;5.37;86.82
8320;BME280;4197;42.130;24.746;2023-01-28T08:38:04;99213.88;;;5.32;85.28
8320;BME280;4197;42.130;24.746;2023-01-28T08:40:33;99215.34;;;5.29;85.78
8320;BME280;4197;42.130;24.746;2023-01-28T08:43:04;99205.88;;;5.23;86.58
8320;BME280;4197;42.130;24.746;2023-01-28T08:45:32;99214.44;;;5.17;86.73
8320;BME280;4197;42.130;24.746;2023-01-28T08:48:02;99214.22;;;5.30;87.03
8320;BME280;4197;42.130;24.746;2023-01-28T08:50:33;99214.84;;;5.57;86.97
8320;BME280;4197;42.130;24.746;2023-01-28T08:53:03;99219.59;;;5.60;85.47
8320;BME280;4197;42.130;24.746;2023-01-28T08:55:37;99215.53;;;5.75;84.66
8320;BME280;4197;42.130;24.746;2023-01-28T08:58:09;99227.09;;;5.75;85.23
8320;BME280;4197;42.130;24.746;2023-01-28T09:00:38;99223.31;;;5.76;84.07
8320;BME280;4197;42.130;24.746;2023-01-28T09:03:07;99227.03;;;5.63;82.91
8320;BME280;4197;42.130;24.746;2023-01-28T09:05:36;99225.53;;;5.74;82.99
8320;BME280;4197;42.130;24.746;2023-01-28T09:08:07;99231.09;;;5.69;82.89
8320;BME280;4197;42.130;24.746;2023-01-28T09:10:35;99229.06;;;5.66;82.98
8320;BME280;4197;42.130;24.746;2023-01-28T09:13:07;99235.69;;;5.69;83.81
8320;BME280;4197;42.130;24.746;2023-01-28T09:15:35;99230.38;;;5.60;82.16
8320;BME280;4197;42.130;24.746;2023-01-28T09:18:05;99234.03;;;5.55;82.54
8320;BME280;4197;42.130;24.746;2023-01-28T09:20:33;99230.72;;;5.50;82.43
8320;BME280;4197;42.130;24.746;2023-01-28T09:23:01;99230.19;;;5.35;83.61
8320;BME280;4197;42.130;24.746;2023-01-28T09:25:29;99231.56;;;5.42;83.62
8320;BME280;4197;42.130;24.746;2023-01-28T09:27:58;99226.19;;;5.42;83.69
8320;BME280;4197;42.130;24.746;2023-01-28T09:30:29;99226.78;;;5.47;83.57
8320;BME280;4197;42.130;24.746;2023-01-28T09:32:57;99216.72;;;5.35;83.32
8320;BME280;4197;42.130;24.746;2023-01-28T09:35:28;99225.91;;;5.34;83.72
8320;BME280;4197;42.130;24.746;2023-01-28T09:37:57;99225.91;;;5.34;83.85
8320;BME280;4197;42.130;24.746;2023-01-28T09:40:32;99223.78;;;5.49;83.64
8320;BME280;4197;42.130;24.746;2023-01-28T09:43:28;99229.66;;;5.72;81.82
8320;BME280;4197;42.130;24.746;2023-01-28T09:46:02;99235.22;;;5.67;80.72
8320;BME280;4197;42.130;24.746;2023-01-28T09:48:34;99233.13;;;5.72;81.92
8320;BME280;4197;42.130;24.746;2023-01-28T09:51:08;99236.53;;;5.81;81.88
8320;BME280;4197;42.130;24.746;2023-01-28T09:53:41;99231.50;;;5.80;81.99
8320;BME280;4197;42.130;24.746;2023-01-28T09:56:21;99230.16;;;5.95;82.18
8320;BME280;4197;42.130;24.746;2023-01-28T09:58:56;99223.72;;;6.08;81.74
8320;BME280;4197;42.130;24.746;2023-01-28T10:01:35;99223.84;;;6.33;79.94
8320;BME280;4197;42.130;24.746;2023-01-28T10:04:17;99222.09;;;6.49;78.51
8320;BME280;4197;42.130;24.746;2023-01-28T10:06:56;99227.72;;;6.56;77.85
8320;BME280;4197;42.130;24.746;2023-01-28T10:09:34;99223.66;;;6.50;71.64
8320;BME280;4197;42.130;24.746;2023-01-28T10:12:15;99225.19;;;6.39;73.40
8320;BME280;4197;42.130;24.746;2023-01-28T10:14:58;99217.38;;;6.46;72.97
8320;BME280;4197;42.130;24.746;2023-01-28T10:17:37;99220.50;;;6.48;72.46
8320;BME280;4197;42.130;24.746;2023-01-28T10:20:17;99215.00;;;6.44;70.50
8320;BME280;4197;42.130;24.746;2023-01-28T10:22:49;99215.69;;;6.41;70.85
8320;BME280;4197;42.130;24.746;2023-01-28T10:25:21;99222.53;;;6.51;70.26
8320;BME280;4197;42.130;24.746;2023-01-28T10:27:51;99224.59;;;6.54;69.94
8320;BME280;4197;42.130;24.746;2023-01-28T10:30:22;99212.00;;;6.46;70.70
8320;BME280;4197;42.130;24.746;2023-01-28T10:32:55;99219.94;;;6.42;71.08
8320;BME280;4197;42.130;24.746;2023-01-28T10:35:26;99218.53;;;6.57;69.65
8320;BME280;4197;42.130;24.746;2023-01-28T10:37:59;99216.72;;;6.49;70.37
8320;BME280;4197;42.130;24.746;2023-01-28T10:40:32;99229.44;;;6.61;70.76
8320;BME280;4197;42.130;24.746;2023-01-28T10:43:01;99232.53;;;6.51;70.83
8320;BME280;4197;42.130;24.746;2023-01-28T10:45:35;99233.06;;;6.44;71.07
8320;BME280;4197;42.130;24.746;2023-01-28T10:48:13;99225.19;;;6.39;69.82
8320;BME280;4197;42.130;24.746;2023-01-28T10:50:49;99213.38;;;6.31;71.68
8320;BME280;4197;42.130;24.746;2023-01-28T10:53:17;99222.25;;;6.32;73.43
8320;BME280;4197;42.130;24.746;2023-01-28T10:55:49;99225.41;;;6.34;72.84
8320;BME280;4197;42.130;24.746;2023-01-28T10:58:21;99223.06;;;6.32;72.95
8320;BME280;4197;42.130;24.746;2023-01-28T11:00:56;99222.88;;;6.16;73.49
8320;BME280;4197;42.130;24.746;2023-01-28T11:03:27;99222.91;;;6.29;73.61
8320;BME280;4197;42.130;24.746;2023-01-28T11:05:57;99230.13;;;6.37;72.83
8320;BME280;4197;42.130;24.746;2023-01-28T11:08:29;99220.28;;;6.41;72.39
8320;BME280;4197;42.130;24.746;2023-01-28T11:10:58;99219.03;;;6.17;72.68
8320;BME280;4197;42.130;24.746;2023-01-28T11:13:28;99224.63;;;6.12;73.59
8320;BME280;4197;42.130;24.746;2023-01-28T11:16:02;99230.59;;;6.18;74.61
8320;BME280;4197;42.130;24.746;2023-01-28T11:18:34;99238.63;;;6.27;74.88
8320;BME280;4197;42.130;24.746;2023-01-28T11:21:05;99221.72;;;6.38;74.69
8320;BME280;4197;42.130;24.746;2023-01-28T11:23:39;99212.50;;;6.39;73.71
8320;BME280;4197;42.130;24.746;2023-01-28T11:26:15;99220.75;;;6.43;72.41
8320;BME280;4197;42.130;24.746;2023-01-28T11:28:44;99216.91;;;6.44;73.31
8320;BME280;4197;42.130;24.746;2023-01-28T11:31:14;99214.59;;;6.55;73.82
8320;BME280;4197;42.130;24.746;2023-01-28T11:33:48;99223.06;;;6.65;72.65
8320;BME280;4197;42.130;24.746;2023-01-28T11:36:18;99209.59;;;6.65;72.68
8320;BME280;4197;42.130;24.746;2023-01-28T11:38:49;99218.91;;;6.68;73.52
8320;BME280;4197;42.130;24.746;2023-01-28T11:41:24;99224.22;;;6.43;72.75
8320;BME280;4197;42.130;24.746;2023-01-28T11:43:53;99227.78;;;6.35;74.50
8320;BME280;4197;42.130;24.746;2023-01-28T11:46:42;99222.78;;;6.46;73.63
8320;BME280;4197;42.130;24.746;2023-01-28T11:49:23;99220.41;;;6.57;73.59
8320;BME280;4197;42.130;24.746;2023-01-28T11:51:59;99219.84;;;6.51;73.32
8320;BME280;4197;42.130;24.746;2023-01-28T11:54:40;99222.19;;;6.40;72.59
8320;BME280;4197;42.130;24.746;2023-01-28T11:57:19;99224.22;;;6.43;72.83
8320;BME280;4197;42.130;24.746;2023-01-28T12:03:14;99235.72;;;6.32;74.20
8320;BME280;4197;42.130;24.746;2023-01-28T12:05:50;99222.09;;;6.16;75.41
8320;BME280;4197;42.130;24.746;2023-01-28T12:08:22;99233.94;;;6.15;75.50
8320;BME280;4197;42.130;24.746;2023-01-28T12:11:11;99227.84;;;6.06;75.56
8320;BME280;4197;42.130;24.746;2023-01-28T12:13:53;99235.63;;;6.07;76.09
8320;BME280;4197;42.130;24.746;2023-01-28T12:16:37;99237.38;;;6.03;76.62
8320;BME280;4197;42.130;24.746;2023-01-28T12:19:31;99246.75;;;5.97;76.53
8320;BME280;4197;42.130;24.746;2023-01-28T12:22:24;99235.63;;;6.07;77.14
8320;BME280;4197;42.130;24.746;2023-01-28T12:25:05;99246.81;;;6.09;76.62
8320;BME280;4197;42.130;24.746;2023-01-28T12:27:47;99240.78;;;6.12;76.25
8320;BME280;4197;42.130;24.746;2023-01-28T12:30:28;99248.69;;;5.96;77.25
8320;BME280;4197;42.130;24.746;2023-01-28T12:33:24;99259.44;;;5.96;77.85
8320;BME280;4197;42.130;24.746;2023-01-28T12:36:02;99255.75;;;6.01;78.15
8320;BME280;4197;42.130;24.746;2023-01-28T12:38:45;99257.06;;;5.95;78.41
8320;BME280;4197;42.130;24.746;2023-01-28T12:41:18;99261.81;;;5.89;78.49
8320;BME280;4197;42.130;24.746;2023-01-28T12:43:54;99252.56;;;5.78;79.52
8320;BME280;4197;42.130;24.746;2023-01-28T12:46:34;99257.53;;;5.67;79.71
8320;BME280;4197;42.130;24.746;2023-01-28T12:49:07;99266.44;;;5.59;80.52
8320;BME280;4197;42.130;24.746;2023-01-28T12:51:46;99274.69;;;5.54;80.70
8320;BME280;4197;42.130;24.746;2023-01-28T12:54:20;99277.28;;;5.42;80.74
8320;BME280;4197;42.130;24.746;2023-01-28T12:56:53;99274.63;;;5.33;82.36
8320;BME280;4197;42.130;24.746;2023-01-28T12:59:26;99286.22;;;5.25;82.60
8320;BME280;4197;42.130;24.746;2023-01-28T13:02:05;99279.44;;;5.19;82.75
8320;BME280;4197;42.130;24.746;2023-01-28T13:04:46;99283.66;;;5.28;82.79
8320;BME280;4197;42.130;24.746;2023-01-28T13:07:21;99283.03;;;5.23;82.58
8320;BME280;4197;42.130;24.746;2023-01-28T13:09:58;99286.88;;;5.13;83.27
8320;BME280;4197;42.130;24.746;2023-01-28T13:12:31;99279.91;;;5.12;84.31
8320;BME280;4197;42.130;24.746;2023-01-28T13:15:00;99283.78;;;4.94;85.00
8320;BME280;4197;42.130;24.746;2023-01-28T13:17:31;99289.31;;;4.88;85.55
8320;BME280;4197;42.130;24.746;2023-01-28T13:19:59;99291.03;;;4.84;85.86
8320;BME280;4197;42.130;24.746;2023-01-28T13:22:30;99289.16;;;4.94;85.92
8320;BME280;4197;42.130;24.746;2023-01-28T13:25:19;99284.69;;;4.98;85.66
8320;BME280;4197;42.130;24.746;2023-01-28T13:27:55;99288.19;;;4.89;85.56
8320;BME280;4197;42.130;24.746;2023-01-28T13:30:27;99290.88;;;4.89;86.17
8320;BME280;4197;42.130;24.746;2023-01-28T13:32:58;99303.84;;;4.87;86.57
8320;BME280;4197;42.130;24.746;2023-01-28T13:35:30;99309.84;;;4.84;86.88
8320;BME280;4197;42.130;24.746;2023-01-28T13:38:04;99300.38;;;4.78;87.59
8320;BME280;4197;42.130;24.746;2023-01-28T13:40:40;99318.72;;;4.76;88.42
8320;BME280;4197;42.130;24.746;2023-01-28T13:43:26;99309.09;;;4.75;89.29
8320;BME280;4197;42.130;24.746;2023-01-28T13:45:56;99320.94;;;4.74;89.69
8320;BME280;4197;42.130;24.746;2023-01-28T13:48:31;99321.09;;;4.69;90.87
8320;BME280;4197;42.130;24.746;2023-01-28T13:51:01;99320.50;;;4.55;92.39
8320;BME280;4197;42.130;24.746;2023-01-28T13:53:38;99322.84;;;4.56;93.92
8320;BME280;4197;42.130;24.746;2023-01-28T13:56:19;99327.91;;;4.58;94.81